South Chase, Wisconsin
Current Conditions -  °F | °C
As of 1:53 PM on Sunday 21 Dec 2014 (Local Time) from KGRB Reporting Station
Haze Haze  
Wind Chill: 29°   Ceiling: 4400
Heat Index: 35°   Visibility: 4mi
Dew Point: 32°   Wind: 8mph
Humidity: 89%   Direction: 180°S
Pressure: 30.02"   Gusts: NA
Location:  44.6594°N, 88.2945°W
Report Text: KGRB 211953Z 18007KT 4SM BR OVC044 02/00 A3002 RMK AO2 SLP173 T00170000
Loading
Personal Weather Stations






























Interactive Weather Map New forecast layout! Learn more

10-Day Weather Forecast

Advertisements
Track Severe Weather on mobile